createdAt,value
2023-02-11T05:49:51.672Z,100541.81
2023-02-11T05:52:18.257Z,100528.63
2023-02-11T05:54:44.769Z,100554.63
2023-02-11T05:57:11.596Z,100560.56
2023-02-11T05:59:38.974Z,100578.78
2023-02-11T06:02:05.481Z,100580.50
2023-02-11T06:04:31.944Z,100597.06
2023-02-11T06:06:58.488Z,100579.78
2023-02-11T06:09:25.128Z,100576.72
2023-02-11T06:11:51.681Z,100562.84
2023-02-11T06:14:18.482Z,100525.75
2023-02-11T06:16:45.511Z,100544.78
2023-02-11T06:19:12.744Z,100528.25
2023-02-11T06:21:44.125Z,100547.38
2023-02-11T06:24:11.481Z,100554.31
2023-02-11T06:26:38.016Z,100556.13
2023-02-11T06:29:04.583Z,100538.00
2023-02-11T06:31:31.251Z,100529.25
2023-02-11T06:33:59.186Z,100526.63
2023-02-11T06:36:25.725Z,100511.72
2023-02-11T06:38:53.034Z,100532.44
2023-02-11T06:41:22.818Z,100516.84
2023-02-11T06:43:49.619Z,100514.13
2023-02-11T06:46:16.321Z,100524.47
2023-02-11T06:48:44.868Z,100520.47
2023-02-11T06:51:13.302Z,100519.50
2023-02-11T06:53:42.643Z,100501.34
2023-02-11T06:56:12.680Z,100549.03
2023-02-11T06:58:39.304Z,100558.63
2023-02-11T07:01:10.971Z,100561.91
2023-02-11T07:03:39.816Z,100558.31
2023-02-11T07:06:07.994Z,100571.34
2023-02-11T07:08:36.037Z,100578.19
2023-02-11T07:11:09.668Z,100589.44
2023-02-11T07:13:36.251Z,100584.16
2023-02-11T07:16:07.465Z,100586.88
2023-02-11T07:18:34.250Z,100580.44
2023-02-11T07:21:04.687Z,100586.38
2023-02-11T07:23:31.634Z,100596.69
2023-02-11T07:25:58.169Z,100597.63
2023-02-11T07:28:24.797Z,100582.31
2023-02-11T07:30:51.341Z,100603.53
2023-02-11T07:33:17.831Z,100619.22
2023-02-11T07:35:44.297Z,100614.75
2023-02-11T07:38:10.772Z,100657.56
2023-02-11T07:40:37.228Z,100688.03
2023-02-11T07:43:03.721Z,100701.97
2023-02-11T07:45:30.255Z,100679.63
2023-02-11T07:47:56.743Z,100666.94
2023-02-11T07:50:23.265Z,100684.34
2023-02-11T07:52:49.783Z,100685.31
2023-02-11T07:55:16.372Z,100687.81
2023-02-11T07:57:42.938Z,100702.34
2023-02-11T08:00:10.353Z,100718.09
2023-02-11T08:02:39.497Z,100736.22
2023-02-11T08:05:06.372Z,100746.81
2023-02-11T08:07:32.859Z,100783.94
2023-02-11T08:09:59.490Z,100776.44
2023-02-11T08:12:25.994Z,100789.59
2023-02-11T08:14:52.468Z,100769.44
2023-02-11T08:17:18.993Z,100766.59
2023-02-11T08:19:45.528Z,100754.81
2023-02-11T08:22:12.494Z,100744.53
2023-02-11T08:24:39.028Z,100762.63
2023-02-11T08:27:05.616Z,100774.81
2023-02-11T08:29:32.100Z,100781.34
2023-02-11T08:31:58.630Z,100767.66
2023-02-11T08:34:25.358Z,100778.41
2023-02-11T08:36:51.953Z,100788.44
2023-02-11T08:39:21.314Z,100778.63
2023-02-11T08:41:50.258Z,100788.75
2023-02-11T08:44:18.591Z,100776.22
2023-02-11T08:46:45.797Z,100765.00
2023-02-11T08:49:12.533Z,100762.91
2023-02-11T08:51:39.057Z,100758.03
2023-02-11T08:54:09.431Z,100781.53
2023-02-11T08:56:37.448Z,100784.53
2023-02-11T08:59:04.391Z,100790.69
2023-02-11T09:01:31.914Z,100791.88
2023-02-11T09:03:59.231Z,100776.00
2023-02-11T09:06:26.824Z,100764.00
2023-02-11T09:08:56.356Z,100745.56
2023-02-11T09:11:29.389Z,100736.09
2023-02-11T09:13:56.204Z,100687.53
2023-02-11T09:16:26.279Z,100705.09
2023-02-11T09:18:53.629Z,100633.16
2023-02-11T09:21:20.323Z,100668.28
2023-02-11T09:23:47.771Z,100516.63
2023-02-11T09:26:14.353Z,100481.94
2023-02-11T09:28:41.120Z,100408.19
2023-02-11T09:31:09.959Z,100439.22
2023-02-11T09:33:37.876Z,100431.78
2023-02-11T09:36:06.083Z,100356.88
2023-02-11T09:38:33.254Z,100392.91
2023-02-11T09:41:01.634Z,100014.38
2023-02-11T09:43:37.509Z,100139.53
2023-02-11T09:46:04.998Z,100200.88
2023-02-11T09:48:40.102Z,100310.41
2023-02-11T09:51:18.230Z,100596.53
2023-02-11T09:53:44.791Z,100506.16
2023-02-11T09:56:14.121Z,100401.31
2023-02-11T09:58:43.307Z,100555.94
2023-02-11T10:01:27.700Z,100382.22
2023-02-11T10:03:59.069Z,100233.63
2023-02-11T10:06:33.172Z,99945.59
2023-02-11T10:09:06.773Z,99794.16
2023-02-11T10:11:33.328Z,99809.88
2023-02-11T10:14:08.855Z,99968.97
2023-02-11T10:16:42.562Z,100144.31
2023-02-11T10:19:30.743Z,100219.78
2023-02-11T10:22:14.727Z,100395.28
2023-02-11T10:24:46.114Z,100410.13
2023-02-11T10:27:20.158Z,100337.16
2023-02-11T10:30:02.703Z,100333.66
2023-02-11T10:32:44.157Z,100446.69
2023-02-11T10:35:16.228Z,100521.63
2023-02-11T10:37:44.530Z,100446.69
2023-02-11T10:40:16.730Z,100621.69
2023-02-11T10:42:51.981Z,100669.44
2023-02-11T10:45:25.990Z,100629.81
2023-02-11T10:47:52.938Z,100536.13
2023-02-11T10:50:25.966Z,100526.59
2023-02-11T10:52:53.034Z,100502.03
2023-02-11T10:55:26.575Z,100549.97
2023-02-11T10:57:53.005Z,100419.19
2023-02-11T11:00:40.541Z,100291.00
2023-02-11T11:03:22.837Z,100266.78
2023-02-11T11:05:50.843Z,100276.81
2023-02-11T11:08:18.467Z,100301.47
2023-02-11T11:10:48.321Z,100317.19
2023-02-11T11:13:38.502Z,100313.31
2023-02-11T11:16:14.231Z,100353.47
2023-02-11T11:18:43.742Z,100473.28
2023-02-11T11:21:16.442Z,100499.94
2023-02-11T11:23:50.448Z,100507.00
2023-02-11T11:26:17.861Z,100508.78
2023-02-11T11:28:53.602Z,100507.50
2023-02-11T11:31:37.034Z,100445.50
2023-02-11T11:34:20.967Z,100412.69
2023-02-11T11:36:48.154Z,100429.09
2023-02-11T11:39:22.178Z,100518.56
2023-02-11T11:41:57.501Z,100566.41
2023-02-11T11:44:34.585Z,100538.03
2023-02-11T11:47:13.438Z,100570.28
2023-02-11T11:50:03.378Z,100535.41
2023-02-11T11:52:48.649Z,100554.53
2023-02-11T11:55:22.810Z,100558.66
2023-02-11T11:57:51.104Z,100561.06
2023-02-11T12:00:17.873Z,100535.00
2023-02-11T12:02:47.382Z,100544.06
2023-02-11T12:05:25.296Z,100532.09
2023-02-11T12:08:03.992Z,100525.22
2023-02-11T12:10:47.342Z,100499.41
2023-02-11T12:13:13.743Z,100505.00
2023-02-11T12:15:59.202Z,100456.56
2023-02-11T12:18:47.284Z,100431.22
2023-02-11T12:21:39.197Z,100422.19
2023-02-11T12:24:36.068Z,100457.34
2023-02-11T12:27:12.625Z,100493.19
2023-02-11T12:29:54.967Z,100522.56
2023-02-11T12:32:38.178Z,100528.53
2023-02-11T12:35:07.464Z,100499.53
2023-02-11T12:37:55.821Z,100422.81
2023-02-11T12:40:45.634Z,100420.41
2023-02-11T12:43:21.198Z,100415.59
2023-02-11T12:46:02.410Z,100379.91
2023-02-11T12:48:41.044Z,100366.47
2023-02-11T12:51:36.787Z,100328.72
2023-02-11T12:54:18.720Z,100259.88
2023-02-11T12:57:16.654Z,100293.28
2023-02-11T12:59:58.934Z,100226.16
2023-02-11T13:02:25.421Z,100162.78
2023-02-11T13:05:00.993Z,100170.59
2023-02-11T13:07:27.440Z,100173.13
2023-02-11T13:10:16.836Z,100194.38
2023-02-11T13:13:07.467Z,100375.72
2023-02-11T13:15:33.966Z,100406.69
2023-02-11T13:18:06.858Z,100420.06
2023-02-11T13:20:45.299Z,100385.25
2023-02-11T13:23:23.884Z,100406.13
2023-02-11T13:25:57.101Z,100474.66
2023-02-11T13:28:29.128Z,100404.47
2023-02-11T13:31:03.021Z,100385.25
2023-02-11T13:33:39.399Z,100467.97
2023-02-11T13:36:05.869Z,100552.84
2023-02-11T13:38:33.062Z,100560.66
2023-02-11T13:41:16.656Z,100575.13
2023-02-11T13:43:44.550Z,100601.38
2023-02-11T13:46:13.353Z,100567.47
2023-02-11T13:48:47.941Z,100534.81
2023-02-11T13:51:17.947Z,100543.06
2023-02-11T13:53:54.700Z,100549.03
2023-02-11T13:56:39.147Z,100632.34
2023-02-11T13:59:26.307Z,100658.22
2023-02-11T14:02:17.471Z,100650.84
2023-02-11T14:05:25.849Z,100692.91
2023-02-11T14:08:39.592Z,100699.19
2023-02-11T14:11:36.922Z,100726.66
2023-02-11T14:14:28.533Z,100714.50
2023-02-11T14:17:07.230Z,100715.28
2023-02-11T14:19:45.193Z,100718.41
2023-02-11T14:22:18.322Z,100712.53
2023-02-11T14:24:53.974Z,100708.00
2023-02-11T14:27:27.233Z,100715.19
2023-02-11T14:30:02.270Z,100708.03
2023-02-11T14:32:34.816Z,100711.66
2023-02-11T14:35:22.599Z,100700.22
2023-02-11T14:37:57.894Z,100700.41
2023-02-11T14:40:38.991Z,100706.97
2023-02-11T14:43:29.707Z,100718.41
2023-02-11T14:45:58.355Z,100706.81
2023-02-11T14:48:31.664Z,100710.97
2023-02-11T14:51:13.344Z,100712.63
2023-02-11T14:53:44.292Z,100717.13
2023-02-11T14:56:24.515Z,100722.22
2023-02-11T14:58:54.489Z,100727.13
2023-02-11T15:01:36.624Z,100714.97
2023-02-11T15:04:05.612Z,100725.88
2023-02-11T15:06:45.079Z,100721.06
2023-02-11T15:09:19.101Z,100723.97
2023-02-11T15:11:48.869Z,100725.19
2023-02-11T15:14:22.608Z,100716.75
2023-02-11T15:16:51.033Z,100718.44
2023-02-11T15:19:28.740Z,100732.28
2023-02-11T15:21:56.720Z,100726.53
2023-02-11T15:24:35.306Z,100740.00
2023-02-11T15:27:14.525Z,100730.03
2023-02-11T15:29:45.297Z,100708.25
2023-02-11T15:32:29.829Z,100708.81
2023-02-11T15:34:58.082Z,100728.81
2023-02-11T15:37:29.829Z,100726.44
2023-02-11T15:40:10.408Z,100715.50
2023-02-11T15:42:51.822Z,100719.56
2023-02-11T15:45:29.524Z,100724.50
2023-02-11T15:48:17.564Z,100714.34
2023-02-11T15:50:51.722Z,100728.44
2023-02-11T15:53:38.007Z,100720.47
2023-02-11T15:56:12.534Z,100710.97
2023-02-11T15:58:40.942Z,100724.84
2023-02-11T16:01:08.818Z,100726.78
2023-02-11T16:03:35.717Z,100719.84
2023-02-11T16:06:25.822Z,100734.47
2023-02-11T16:09:25.935Z,100724.91
2023-02-11T16:11:53.593Z,100725.34
2023-02-11T16:14:42.144Z,100711.34
2023-02-11T16:17:13.217Z,100719.16
2023-02-11T16:19:48.378Z,100720.94
2023-02-11T16:22:27.512Z,100708.84
2023-02-11T16:24:58.007Z,100714.16
2023-02-11T16:27:30.254Z,100713.22
2023-02-11T16:29:58.049Z,100721.88
2023-02-11T16:32:26.932Z,100738.69
2023-02-11T16:34:55.321Z,100731.97
2023-02-11T16:37:21.820Z,100727.50
2023-02-11T16:39:48.385Z,100715.53
2023-02-11T16:42:14.959Z,100708.28
2023-02-11T16:44:41.453Z,100716.91
2023-02-11T16:47:23.594Z,100713.69
2023-02-11T16:49:50.546Z,100723.44
2023-02-11T16:52:18.767Z,100713.91
2023-02-11T16:54:45.350Z,100714.81
2023-02-11T16:57:17.955Z,100700.81
2023-02-11T16:59:45.157Z,100692.09
2023-02-11T17:02:23.786Z,100697.31
2023-02-11T17:04:53.276Z,100697.53
2023-02-11T17:07:19.841Z,100674.31
2023-02-11T17:09:46.437Z,100688.69
2023-02-11T17:12:12.979Z,100697.56
2023-02-11T17:14:39.538Z,100700.25
2023-02-11T17:17:06.353Z,100694.38
2023-02-11T17:19:32.940Z,100680.50
2023-02-11T17:21:59.407Z,100681.41
2023-02-11T17:24:25.934Z,100709.84
2023-02-11T17:26:52.458Z,100704.75
2023-02-11T17:29:22.199Z,100702.09
2023-02-11T17:31:49.438Z,100702.16
2023-02-11T17:34:16.857Z,100707.44
2023-02-11T17:36:43.398Z,100704.06
2023-02-11T17:39:10.547Z,100694.59
2023-02-11T17:41:38.145Z,100685.81
2023-02-11T17:44:05.976Z,100692.22
2023-02-11T17:46:34.528Z,100698.28
2023-02-11T17:49:02.055Z,100712.38
2023-02-11T17:51:34.396Z,100704.56
2023-02-11T17:54:03.556Z,100700.88
2023-02-11T17:56:32.759Z,100697.38
2023-02-11T17:58:59.287Z,100702.81
2023-02-11T18:01:30.397Z,100687.22
2023-02-11T18:04:18.563Z,100690.38
2023-02-11T18:07:03.728Z,100702.69
2023-02-11T18:09:50.595Z,100672.34
2023-02-11T18:12:37.443Z,100669.66
2023-02-11T18:15:24.460Z,100693.13
2023-02-11T18:18:11.350Z,100691.28
2023-02-11T18:20:59.929Z,100686.00
2023-02-11T18:23:47.596Z,100675.75
2023-02-11T18:26:34.998Z,100695.69
2023-02-11T18:29:21.862Z,100696.63
2023-02-11T18:32:08.708Z,100694.84
2023-02-11T18:34:55.593Z,100698.50
2023-02-11T18:37:42.958Z,100692.56
2023-02-11T18:40:29.806Z,100675.81
2023-02-11T18:43:17.349Z,100696.81
2023-02-11T18:46:11.918Z,100690.88
2023-02-11T18:48:58.786Z,100666.31
2023-02-11T18:51:45.832Z,100688.50
2023-02-11T18:54:32.657Z,100691.19
2023-02-11T18:57:19.491Z,100677.22
2023-02-11T19:00:07.644Z,100693.72
2023-02-11T19:02:54.453Z,100679.81
2023-02-11T19:05:47.082Z,100699.09
2023-02-11T19:08:33.900Z,100684.06
2023-02-11T19:11:41.316Z,100693.91
2023-02-11T19:14:31.383Z,100693.72
2023-02-11T19:17:18.185Z,100687.84
2023-02-11T19:20:05.986Z,100708.81
2023-02-11T19:22:52.818Z,100703.50
2023-02-11T19:25:46.652Z,100693.75
2023-02-11T19:28:35.166Z,100699.16
2023-02-11T19:31:22.146Z,100701.81
2023-02-11T19:34:10.981Z,100705.31
2023-02-11T19:37:01.600Z,100703.59
2023-02-11T19:39:48.603Z,100701.94
2023-02-11T19:42:35.459Z,100709.88
2023-02-11T19:45:22.525Z,100695.38
2023-02-11T19:48:12.785Z,100679.50
2023-02-11T19:51:07.294Z,100677.56
2023-02-11T19:53:55.263Z,100687.72
2023-02-11T19:56:42.141Z,100703.44
2023-02-11T19:59:29.027Z,100703.41
2023-02-11T20:02:15.840Z,100710.50
2023-02-11T20:05:03.905Z,100710.59
2023-02-11T20:07:50.735Z,100708.72
2023-02-11T20:10:37.556Z,100717.59
2023-02-11T20:13:27.891Z,100709.94
2023-02-11T20:16:17.618Z,100706.28
2023-02-11T20:19:04.556Z,100704.50
2023-02-11T20:21:53.533Z,100708.88
2023-02-11T20:24:40.585Z,100715.91
2023-02-11T20:27:29.363Z,100702.09
2023-02-11T20:30:16.618Z,100702.72
2023-02-11T20:33:03.485Z,100700.16
2023-02-11T20:36:08.167Z,100698.50
2023-02-11T20:38:55.165Z,100687.00
2023-02-11T20:41:41.950Z,100701.13
2023-02-11T20:44:28.833Z,100713.31
2023-02-11T20:47:15.734Z,100708.28
2023-02-11T20:50:02.599Z,100689.06
2023-02-11T20:52:49.419Z,100701.34
2023-02-11T20:55:38.189Z,100682.53
2023-02-11T20:58:25.101Z,100675.56
2023-02-11T21:01:21.109Z,100698.09
2023-02-11T21:04:12.571Z,100684.69
2023-02-11T21:07:01.664Z,100676.97
2023-02-11T21:09:48.478Z,100676.88
2023-02-11T21:12:35.352Z,100701.16
2023-02-11T21:15:24.052Z,100710.06
2023-02-11T21:18:11.368Z,100705.06
2023-02-11T21:20:58.773Z,100709.16
2023-02-11T21:23:46.090Z,100699.91
2023-02-11T21:26:35.284Z,100687.97
2023-02-11T21:29:22.291Z,100680.97
